Time;durP1;ratioP1;P1;durP2;ratioP2;P2;SDS_P1;SDS_P2;PMS_P1;PMS_P2;Temp;Humidity;BMP_temperature;BMP_pressure;BME280_temperature;BME280_humidity;BME280_pressure;Samples;Min_cycle;Max_cycle;Signal;HPM_P1;HPM_P2
2022/08/05 00:34:41;;;;;;;;;;;;;;;;;;5025350;28;19940;-85
2022/08/05 00:37:06;;;;;;;;;;;;;;;;;;5028165;28;19913;-85
2022/08/05 00:39:31;;;;;;;;;;;;;;;;;;5025980;28;19935;-85
2022/08/05 00:41:56;;;;;;;;;;;;;;;;;;5026308;28;19913;-85
2022/08/05 00:44:21;;;;;;;;;;;;;;;;;;5025974;28;19917;-86
2022/08/05 00:46:47;;;;;;;;;;;;;;;;;;5027349;28;19929;-85
2022/08/05 00:49:12;;;;;;;;;;;;;;;;;;5022805;28;20388;-85
2022/08/05 00:51:38;;;;;;;;;;;;;;;;;;5028730;28;19967;-86
2022/08/05 00:54:03;;;;;;;;;;;;;;;;;;5028876;28;19966;-85
2022/08/05 00:56:28;;;;;;;;;;;;;;;;;;5024682;28;20148;-85
2022/08/05 00:58:53;;;;;;;;;;;;;;;;;;5024880;28;19979;-85
2022/08/05 01:01:18;;;;;;;;;;;;;;;;;;5023978;28;20323;-85
2022/08/05 01:03:43;;;;;;;;;;;;;;;;;;5028867;28;19920;-86
2022/08/05 01:06:09;;;;;;;;;;;;;;;;;;5025008;28;19917;-86
2022/08/05 01:08:34;;;;;;;;;;;;;;;;;;5028423;28;19916;-85
2022/08/05 01:10:59;;;;;;;;;;;;;;;;;;5023828;28;19913;-85
2022/08/05 01:13:24;;;;;;;;;;;;;;;;;;5026961;28;19959;-85
2022/08/05 01:15:49;;;;;;;;;;;;;;;;;;5022279;28;19917;-85
2022/08/05 01:18:14;;;;;;;;;;;;;;;;;;5028660;28;19971;-85
2022/08/05 01:20:40;;;;;;;;;;;;;;;;;;5026689;28;21765;-84
2022/08/05 01:23:06;;;;;;;;;;;;;;;;;;5025065;28;20386;-86
2022/08/05 01:25:31;;;;;;;;;;;;;;;;;;5026042;28;19918;-85
2022/08/05 01:27:56;;;;;;;;;;;;;;;;;;5031334;28;19920;-86
2022/08/05 01:30:21;;;;;;;;;;;;;;;;;;5023480;28;20363;-85
2022/08/05 01:32:47;;;;;;;;;;;;;;;;;;5027168;28;20052;-85
2022/08/05 01:35:12;;;;;;;;;;;;;;;;;;5019801;28;19914;-85
2022/08/05 01:37:38;;;;;;;;;;;;;;;;;;5025631;28;20271;-85
2022/08/05 01:40:03;;;;;;;;;;;;;;;;;;5027554;28;19913;-85
2022/08/05 01:42:28;;;;;;;;;;;;;;;;;;5021315;28;19913;-85
2022/08/05 01:44:53;;;;;;;;;;;;;;;;;;5025698;28;19999;-85
2022/08/05 01:47:18;;;;;;;;;;;;;;;;;;5027190;28;19917;-86
2022/08/05 01:49:43;;;;;;;;;;;;;;;;;;5025737;28;19929;-85
2022/08/05 01:52:09;;;;;;;;;;;;;;;;;;5020164;28;19917;-85
2022/08/05 01:54:34;;;;;;;;;;;;;;;;;;5018474;28;20336;-85
2022/08/05 01:56:59;;;;;;;;;;;;;;;;;;5028417;28;19945;-85
2022/08/05 01:59:25;;;;;;;;;;;;;;;;;;5022712;28;20011;-85
2022/08/05 02:01:50;;;;;;;;;;;;;;;;;;5027615;28;19913;-85
2022/08/05 02:04:15;;;;;;;;;;;;;;;;;;5017376;28;19929;-85
2022/08/05 02:06:40;;;;;;;;;;;;;;;;;;5023480;28;19921;-85
2022/08/05 02:09:05;;;;;;;;;;;;;;;;;;5019536;28;19925;-85
2022/08/05 02:11:30;;;;;;;;;;;;;;;;;;5023216;28;19998;-85
2022/08/05 02:13:56;;;;;;;;;;;;;;;;;;5028777;28;19920;-86
2022/08/05 02:16:21;;;;;;;;;;;;;;;;;;5023479;28;20517;-85
2022/08/05 02:18:46;;;;;;;;;;;;;;;;;;5027626;28;20478;-86
2022/08/05 02:21:11;;;;;;;;;;;;;;;;;;5024382;28;20302;-85
2022/08/05 02:23:37;;;;;;;;;;;;;;;;;;5026330;28;19913;-85
2022/08/05 02:26:02;;;;;;;;;;;;;;;;;;5021654;28;19939;-85
2022/08/05 02:28:27;;;;;;;;;;;;;;;;;;5021578;28;19910;-85
2022/08/05 02:30:52;;;;;;;;;;;;;;;;;;5021092;28;19913;-84
2022/08/05 02:33:17;;;;;;;;;;;;;;;;;;5021989;28;19917;-85
2022/08/05 02:35:42;;;;;;;;;;;;;;;;;;5022791;28;19913;-84
2022/08/05 02:38:08;;;;;;;;;;;;;;;;;;5027477;28;20386;-85
2022/08/05 02:40:33;;;;;;;;;;;;;;;;;;5021203;28;19913;-84
2022/08/05 02:42:58;;;;;;;;;;;;;;;;;;5021478;28;20314;-86
2022/08/05 02:45:23;;;;;;;;;;;;;;;;;;5024041;28;20012;-84
2022/08/05 02:47:48;;;;;;;;;;;;;;;;;;5022294;28;19913;-85
2022/08/05 02:50:13;;;;;;;;;;;;;;;;;;5021206;28;20422;-85
2022/08/05 02:52:39;;;;;;;;;;;;;;;;;;5020228;28;19917;-85
2022/08/05 02:55:04;;;;;;;;;;;;;;;;;;5025410;28;20291;-85
2022/08/05 02:57:29;;;;;;;;;;;;;;;;;;5026805;28;19913;-84
2022/08/05 02:59:54;;;;;;;;;;;;;;;;;;5020880;28;19999;-85
2022/08/05 03:02:19;;;;;;;;;;;;;;;;;;5019155;28;19920;-85
2022/08/05 03:04:44;;;;;;;;;;;;;;;;;;5021077;28;20947;-85
2022/08/05 03:07:10;;;;;;;;;;;;;;;;;;5018508;28;19918;-85
2022/08/05 03:09:35;;;;;;;;;;;;;;;;;;5014268;28;19917;-86
2022/08/05 03:12:00;;;;;;;;;;;;;;;;;;5021450;28;19933;-85
2022/08/05 03:14:25;;;;;;;;;;;;;;;;;;5021427;28;20004;-85
2022/08/05 03:16:50;;;;;;;;;;;;;;;;;;5027280;28;19996;-85
2022/08/05 03:19:16;;;;;;;;;;;;;;;;;;5028468;28;19944;-84
2022/08/05 03:21:41;;;;;;;;;;;;;;;;;;5023627;28;19921;-86
2022/08/05 03:24:06;;;;;;;;;;;;;;;;;;5023460;28;20425;-85
2022/08/05 03:26:31;;;;;;;;;;;;;;;;;;5019173;28;19918;-85
2022/08/05 03:28:56;;;;;;;;;;;;;;;;;;5026135;28;20317;-84
2022/08/05 03:31:21;;;;;;;;;;;;;;;;;;5026474;28;19913;-85
2022/08/05 03:33:47;;;;;;;;;;;;;;;;;;5021312;28;19924;-85
2022/08/05 03:36:12;;;;;;;;;;;;;;;;;;5024950;28;20008;-85
2022/08/05 03:38:37;;;;;;;;;;;;;;;;;;5023842;28;19921;-85
2022/08/05 03:41:02;;;;;;;;;;;;;;;;;;5027408;28;20459;-84
2022/08/05 03:43:27;;;;;;;;;;;;;;;;;;5020052;28;20012;-85
2022/08/05 03:45:53;;;;;;;;;;;;;;;;;;5027785;28;19939;-85
2022/08/05 03:48:18;;;;;;;;;;;;;;;;;;5027955;28;19924;-85
2022/08/05 03:50:44;;;;;;;;;;;;;;;;;;5026832;28;19959;-85
2022/08/05 03:53:12;;;;;;;;;;;;;;;;;;5019092;28;19914;-86
2022/08/05 03:55:37;;;;;;;;;;;;;;;;;;5028554;28;19920;-85
2022/08/05 03:58:02;;;;;;;;;;;;;;;;;;5023642;28;20448;-85
2022/08/05 04:00:30;;;;;;;;;;;;;;;;;;5029800;28;19920;-86
2022/08/05 04:02:55;;;;;;;;;;;;;;;;;;5020122;28;19914;-84
2022/08/05 04:05:20;;;;;;;;;;;;;;;;;;5028160;28;20363;-84
2022/08/05 04:07:45;;;;;;;;;;;;;;;;;;5029850;28;20409;-84
2022/08/05 04:10:10;;;;;;;;;;;;;;;;;;5027494;28;20383;-85
2022/08/05 04:12:36;;;;;;;;;;;;;;;;;;5026563;28;19964;-86
2022/08/05 04:15:01;;;;;;;;;;;;;;;;;;5022874;28;20375;-85
2022/08/05 04:17:26;;;;;;;;;;;;;;;;;;5023822;28;19921;-86
2022/08/05 04:19:51;;;;;;;;;;;;;;;;;;5026075;28;19913;-84
2022/08/05 04:22:16;;;;;;;;;;;;;;;;;;5023883;28;19913;-85
2022/08/05 04:24:42;;;;;;;;;;;;;;;;;;5029653;28;20395;-85
2022/08/05 04:27:07;;;;;;;;;;;;;;;;;;5027247;28;19947;-85
2022/08/05 04:29:32;;;;;;;;;;;;;;;;;;5025244;28;20012;-85
2022/08/05 04:31:57;;;;;;;;;;;;;;;;;;5026086;28;19936;-86
2022/08/05 04:34:22;;;;;;;;;;;;;;;;;;5023293;28;19917;-86
2022/08/05 04:36:47;;;;;;;;;;;;;;;;;;5030597;28;19920;-85
2022/08/05 04:39:13;;;;;;;;;;;;;;;;;;5028758;28;19913;-85
2022/08/05 04:41:38;;;;;;;;;;;;;;;;;;5022007;28;19918;-85
2022/08/05 04:44:03;;;;;;;;;;;;;;;;;;5022233;28;19920;-85
2022/08/05 04:46:28;;;;;;;;;;;;;;;;;;5026611;28;19917;-86
2022/08/05 04:48:53;;;;;;;;;;;;;;;;;;5028551;28;20406;-85
2022/08/05 04:51:18;;;;;;;;;;;;;;;;;;5024257;28;19920;-85
2022/08/05 04:53:44;;;;;;;;;;;;;;;;;;5025975;28;20307;-86
2022/08/05 04:56:09;;;;;;;;;;;;;;;;;;5026995;28;19913;-86
2022/08/05 04:58:34;;;;;;;;;;;;;;;;;;5033063;28;19917;-85
2022/08/05 05:00:59;;;;;;;;;;;;;;;;;;5026989;28;19936;-86
2022/08/05 05:03:24;;;;;;;;;;;;;;;;;;5031501;28;19919;-85
2022/08/05 05:05:50;;;;;;;;;;;;;;;;;;5026962;28;19922;-85
2022/08/05 05:08:15;;;;;;;;;;;;;;;;;;5031890;28;19951;-86
2022/08/05 05:10:41;;;;;;;;;;;;;;;;;;5030657;28;20484;-86
2022/08/05 05:13:06;;;;;;;;;;;;;;;;;;5031617;28;19918;-86
2022/08/05 05:15:31;;;;;;;;;;;;;;;;;;5029497;28;19971;-86
2022/08/05 05:17:56;;;;;;;;;;;;;;;;;;5024534;28;19914;-85
2022/08/05 05:20:21;;;;;;;;;;;;;;;;;;5026157;28;20283;-86
2022/08/05 05:22:47;;;;;;;;;;;;;;;;;;5027890;28;19964;-85
2022/08/05 05:25:13;;;;;;;;;;;;;;;;;;5024401;28;20495;-86
2022/08/05 05:27:38;;;;;;;;;;;;;;;;;;5029337;28;19932;-86
2022/08/05 05:30:03;;;;;;;;;;;;;;;;;;5029810;28;19922;-85
2022/08/05 05:32:29;;;;;;;;;;;;;;;;;;5018127;28;19913;-85
2022/08/05 05:34:54;;;;;;;;;;;;;;;;;;5018041;28;19918;-85
2022/08/05 05:37:19;;;;;;;;;;;;;;;;;;5030248;28;19959;-86
2022/08/05 05:39:44;;;;;;;;;;;;;;;;;;5024784;28;20299;-85
2022/08/05 05:42:09;;;;;;;;;;;;;;;;;;5028583;28;19909;-86
2022/08/05 05:44:34;;;;;;;;;;;;;;;;;;5021134;28;19920;-85
2022/08/05 05:47:00;;;;;;;;;;;;;;;;;;5025960;28;19921;-86
2022/08/05 05:49:25;;;;;;;;;;;;;;;;;;5024646;28;19966;-86
2022/08/05 05:51:50;;;;;;;;;;;;;;;;;;5024069;28;19918;-85
2022/08/05 05:54:15;;;;;;;;;;;;;;;;;;5024146;28;19917;-85
2022/08/05 05:56:40;;;;;;;;;;;;;;;;;;5026040;28;19956;-86
2022/08/05 05:59:06;;;;;;;;;;;;;;;;;;5022874;28;20406;-85
2022/08/05 06:01:31;;;;;;;;;;;;;;;;;;5017660;28;19940;-85
2022/08/05 06:03:56;;;;;;;;;;;;;;;;;;5027338;28;20049;-85
2022/08/05 06:06:21;;;;;;;;;;;;;;;;;;5021049;28;19923;-86
2022/08/05 06:08:46;;;;;;;;;;;;;;;;;;5021903;28;19916;-86
2022/08/05 06:11:11;;;;;;;;;;;;;;;;;;5018281;28;19937;-86
2022/08/05 06:13:37;;;;;;;;;;;;;;;;;;5023901;28;19908;-86
2022/08/05 06:16:02;;;;;;;;;;;;;;;;;;5016924;28;19920;-85
2022/08/05 06:18:27;;;;;;;;;;;;;;;;;;5018965;28;20338;-86
2022/08/05 06:20:52;;;;;;;;;;;;;;;;;;5024995;28;19952;-86
2022/08/05 06:23:17;;;;;;;;;;;;;;;;;;5021314;28;19919;-86
2022/08/05 06:25:43;;;;;;;;;;;;;;;;;;5020565;28;19917;-86
2022/08/05 06:28:08;;;;;;;;;;;;;;;;;;5026422;28;20350;-86
2022/08/05 06:30:33;;;;;;;;;;;;;;;;;;5024417;28;19921;-86
2022/08/05 06:32:58;;;;;;;;;;;;;;;;;;5024723;28;19917;-87
2022/08/05 06:35:23;;;;;;;;;;;;;;;;;;5026300;28;20429;-86
2022/08/05 06:37:48;;;;;;;;;;;;;;;;;;5022776;28;19949;-87
2022/08/05 06:40:14;;;;;;;;;;;;;;;;;;5024211;28;20000;-87
2022/08/05 06:42:39;;;;;;;;;;;;;;;;;;5025051;28;19929;-87
2022/08/05 06:45:04;;;;;;;;;;;;;;;;;;5023323;28;20406;-86
2022/08/05 06:47:30;;;;;;;;;;;;;;;;;;5022634;28;19918;-87
2022/08/05 06:49:55;;;;;;;;;;;;;;;;;;5026172;28;19921;-86
2022/08/05 06:52:20;;;;;;;;;;;;;;;;;;5026062;28;19917;-86
2022/08/05 06:54:45;;;;;;;;;;;;;;;;;;5019408;28;19948;-85
2022/08/05 06:57:13;;;;;;;;;;;;;;;;;;5022704;28;19949;-85
2022/08/05 06:59:38;;;;;;;;;;;;;;;;;;5018257;28;20948;-86
2022/08/05 07:02:03;;;;;;;;;;;;;;;;;;5022463;28;20012;-88
2022/08/05 07:04:28;;;;;;;;;;;;;;;;;;5027382;28;19956;-85
2022/08/05 07:06:54;;;;;;;;;;;;;;;;;;5020651;28;19925;-87
2022/08/05 07:09:19;;;;;;;;;;;;;;;;;;5030020;28;19917;-86
2022/08/05 07:11:44;;;;;;;;;;;;;;;;;;5030672;28;20123;-88
2022/08/05 07:16:58;;;;;;;;;;;;;;;;;;5027206;28;19925;-86
2022/08/05 07:19:24;;;;;;;;;;;;;;;;;;5024447;28;20401;-87
2022/08/05 07:21:49;;;;;;;;;;;;;;;;;;5024418;28;19920;-86
2022/08/05 07:24:15;;;;;;;;;;;;;;;;;;5024012;28;19917;-87
2022/08/05 07:26:40;;;;;;;;;;;;;;;;;;5022338;28;19921;-86
2022/08/05 07:29:05;;;;;;;;;;;;;;;;;;5024450;28;19917;-88
2022/08/05 07:31:30;;;;;;;;;;;;;;;;;;5020257;28;19920;-87
2022/08/05 07:33:55;;;;;;;;;;;;;;;;;;5021068;28;20015;-86
2022/08/05 07:36:20;;;;;;;;;;;;;;;;;;5021142;28;19928;-86
2022/08/05 07:38:46;;;;;;;;;;;;;;;;;;5023095;28;20418;-87
2022/08/05 07:41:11;;;;;;;;;;;;;;;;;;5021077;28;20401;-86
2022/08/05 07:43:36;;;;;;;;;;;;;;;;;;5024439;28;19924;-88
2022/08/05 07:46:01;;;;;;;;;;;;;;;;;;5027323;28;19917;-88
2022/08/05 07:48:27;;;;;;;;;;;;;;;;;;5019792;28;19980;-88
2022/08/05 07:50:54;;;;;;;;;;;;;;;;;;5024336;28;20367;-86
2022/08/05 07:53:19;;;;;;;;;;;;;;;;;;5023332;28;19913;-87
2022/08/05 07:55:44;;;;;;;;;;;;;;;;;;5022938;28;19940;-89
2022/08/05 07:58:09;;;;;;;;;;;;;;;;;;5023902;28;20286;-86
2022/08/05 08:00:35;;;;;;;;;;;;;;;;;;5031099;28;19914;-89
2022/08/05 08:03:00;;;;;;;;;;;;;;;;;;5029334;28;19970;-89
2022/08/05 08:05:26;;;;;;;;;;;;;;;;;;5030015;28;19928;-89
2022/08/05 08:07:51;;;;;;;;;;;;;;;;;;5031951;28;20660;-89
2022/08/05 08:10:16;;;;;;;;;;;;;;;;;;5029057;28;19943;-87
2022/08/05 08:12:41;;;;;;;;;;;;;;;;;;5024276;28;19921;-89
2022/08/05 08:15:07;;;;;;;;;;;;;;;;;;5027008;28;19963;-89
2022/08/05 08:17:32;;;;;;;;;;;;;;;;;;5022758;28;19918;-87
2022/08/05 08:19:57;;;;;;;;;;;;;;;;;;5023330;28;19928;-87
2022/08/05 08:22:22;;;;;;;;;;;;;;;;;;5029159;28;19960;-88
2022/08/05 08:24:47;;;;;;;;;;;;;;;;;;5034088;28;20197;-88
2022/08/05 08:27:12;;;;;;;;;;;;;;;;;;5034837;28;19917;-88
2022/08/05 08:29:38;;;;;;;;;;;;;;;;;;5026163;28;19913;-87
2022/08/05 08:32:03;;;;;;;;;;;;;;;;;;5023517;28;20008;-87
2022/08/05 08:34:28;;;;;;;;;;;;;;;;;;5027176;28;19929;-85
2022/08/05 08:36:54;;;;;;;;;;;;;;;;;;5030119;28;19913;-87
2022/08/05 08:39:22;;;;;;;;;;;;;;;;;;5047575;28;19917;-88
2022/08/05 08:41:47;;;;;;;;;;;;;;;;;;5032449;28;19914;-86
2022/08/05 08:44:12;;;;;;;;;;;;;;;;;;5029931;28;19936;-88
2022/08/05 08:46:37;;;;;;;;;;;;;;;;;;5027689;28;19917;-88
2022/08/05 08:49:02;;;;;;;;;;;;;;;;;;5030406;28;19913;-87
2022/08/05 08:51:28;;;;;;;;;;;;;;;;;;5024078;28;19913;-86
2022/08/05 08:53:53;;;;;;;;;;;;;;;;;;5024681;28;20003;-87
2022/08/05 08:56:19;;;;;;;;;;;;;;;;;;5027651;28;20440;-89
2022/08/05 08:58:45;;;;;;;;;;;;;;;;;;5025599;28;19917;-86
2022/08/05 09:01:10;;;;;;;;;;;;;;;;;;5021416;28;19975;-88
2022/08/05 09:03:35;;;;;;;;;;;;;;;;;;5023320;28;20098;-87
2022/08/05 09:06:00;;;;;;;;;;;;;;;;;;5024547;28;19935;-87
2022/08/05 09:08:25;;;;;;;;;;;;;;;;;;5023429;28;19917;-86
2022/08/05 09:10:51;;;;;;;;;;;;;;;;;;5024390;28;20402;-87
2022/08/05 09:13:16;;;;;;;;;;;;;;;;;;5027457;28;20011;-87
2022/08/05 09:15:41;;;;;;;;;;;;;;;;;;5027929;28;19917;-87
2022/08/05 09:18:07;;;;;;;;;;;;;;;;;;5022658;28;20306;-89
2022/08/05 09:20:32;;;;;;;;;;;;;;;;;;5027587;28;20008;-88
2022/08/05 09:22:57;;;;;;;;;;;;;;;;;;5018564;28;20048;-87
2022/08/05 09:25:22;;;;;;;;;;;;;;;;;;5021382;28;20310;-88
2022/08/05 09:27:47;;;;;;;;;;;;;;;;;;5024794;28;19917;-85
2022/08/05 09:30:12;;;;;;;;;;;;;;;;;;5023825;28;19913;-87
2022/08/05 09:32:38;;;;;;;;;;;;;;;;;;5021306;28;20393;-86
2022/08/05 09:35:03;;;;;;;;;;;;;;;;;;5022518;28;19925;-87
2022/08/05 09:37:28;;;;;;;;;;;;;;;;;;5023438;28;19923;-87
2022/08/05 09:39:53;;;;;;;;;;;;;;;;;;5025753;28;19913;-86
2022/08/05 09:42:19;;;;;;;;;;;;;;;;;;5021103;28;19923;-86
2022/08/05 09:44:44;;;;;;;;;;;;;;;;;;5022467;28;19939;-86
2022/08/05 09:47:09;;;;;;;;;;;;;;;;;;5020739;28;20283;-87
2022/08/05 09:49:35;;;;;;;;;;;;;;;;;;5025516;28;20552;-89
2022/08/05 09:52:00;;;;;;;;;;;;;;;;;;5022169;28;19913;-86
2022/08/05 09:54:25;;;;;;;;;;;;;;;;;;5022097;28;20004;-88
2022/08/05 09:56:50;;;;;;;;;;;;;;;;;;5025839;28;19921;-87
2022/08/05 09:59:16;;;;;;;;;;;;;;;;;;5026413;28;19957;-86
2022/08/05 10:01:41;;;;;;;;;;;;;;;;;;5023854;28;20371;-86
2022/08/05 10:04:07;;;;;;;;;;;;;;;;;;5021277;28;19913;-86
2022/08/05 10:06:32;;;;;;;;;;;;;;;;;;5022955;28;20435;-88
2022/08/05 10:08:58;;;;;;;;;;;;;;;;;;5016157;28;20008;-90
2022/08/05 10:11:23;;;;;;;;;;;;;;;;;;5022201;28;19913;-86
2022/08/05 10:13:48;;;;;;;;;;;;;;;;;;5026208;28;19940;-87
2022/08/05 10:16:13;;;;;;;;;;;;;;;;;;5022339;28;19920;-87
2022/08/05 10:18:38;;;;;;;;;;;;;;;;;;5020038;28;20529;-85
2022/08/05 10:21:04;;;;;;;;;;;;;;;;;;5025710;28;19913;-86
2022/08/05 10:23:29;;;;;;;;;;;;;;;;;;5021239;28;20314;-86
2022/08/05 10:25:54;;;;;;;;;;;;;;;;;;5019837;28;19917;-85
2022/08/05 10:28:19;;;;;;;;;;;;;;;;;;5021970;28;20066;-87
2022/08/05 10:30:44;;;;;;;;;;;;;;;;;;5015443;28;19914;-89
2022/08/05 10:33:10;;;;;;;;;;;;;;;;;;5027611;28;20007;-86
2022/08/05 10:35:35;;;;;;;;;;;;;;;;;;5022004;28;19924;-89
2022/08/05 10:38:00;;;;;;;;;;;;;;;;;;5023907;28;19928;-87
2022/08/05 10:40:25;;;;;;;;;;;;;;;;;;5020752;28;20397;-87
2022/08/05 10:42:50;;;;;;;;;;;;;;;;;;5021019;28;19913;-90
2022/08/05 10:45:16;;;;;;;;;;;;;;;;;;5024178;28;20303;-86
2022/08/05 10:47:43;;;;;;;;;;;;;;;;;;5019072;28;19913;-85
2022/08/05 10:50:15;;;;;;;;;;;;;;;;;;5020760;28;19913;-89
2022/08/05 10:52:40;;;;;;;;;;;;;;;;;;5016206;28;20000;-85
2022/08/05 10:55:05;;;;;;;;;;;;;;;;;;5022382;28;19992;-88
2022/08/05 10:57:31;;;;;;;;;;;;;;;;;;5024824;28;19925;-89
2022/08/05 10:59:56;;;;;;;;;;;;;;;;;;5023113;28;19924;-86
2022/08/05 11:02:21;;;;;;;;;;;;;;;;;;5012841;28;19917;-86
2022/08/05 11:04:46;;;;;;;;;;;;;;;;;;5022167;28;19936;-84
2022/08/05 11:07:14;;;;;;;;;;;;;;;;;;5021581;28;19917;-85
2022/08/05 11:09:39;;;;;;;;;;;;;;;;;;5018980;28;20067;-84
2022/08/05 11:12:05;;;;;;;;;;;;;;;;;;5018946;28;20012;-83
2022/08/05 11:14:30;;;;;;;;;;;;;;;;;;5018265;28;19921;-83
2022/08/05 11:16:55;;;;;;;;;;;;;;;;;;5018880;28;19913;-83
2022/08/05 11:19:20;;;;;;;;;;;;;;;;;;5023710;28;19924;-83
2022/08/05 11:21:46;;;;;;;;;;;;;;;;;;5015318;28;19917;-84
2022/08/05 11:24:11;;;;;;;;;;;;;;;;;;5021434;28;19909;-84
2022/08/05 11:26:36;;;;;;;;;;;;;;;;;;5023939;28;20307;-83
2022/08/05 11:29:02;;;;;;;;;;;;;;;;;;5021715;28;19913;-84
2022/08/05 11:31:29;;;;;;;;;;;;;;;;;;5022906;28;19917;-84
2022/08/05 11:33:55;;;;;;;;;;;;;;;;;;5024668;28;20011;-85
2022/08/05 11:36:30;;;;;;;;;;;;;;;;;;5021502;28;20367;-85
2022/08/05 11:38:55;;;;;;;;;;;;;;;;;;5023464;28;20413;-85
2022/08/05 11:44:31;;;;;;;;;;;;;;;;;;;;;
2022/08/05 11:47:05;;;;;;;;;;;;;;;;;;4936078;29;19927;-84
2022/08/05 11:52:22;;;;;;;;;;;;;;;;;;4974296;28;20528;-84
2022/08/05 11:54:49;;;;;;;;;;;;;;;;;;5020537;28;19917;-84
2022/08/05 11:57:17;;;;;;;;;;;;;;;;;;5024412;28;20422;-84
2022/08/05 11:59:50;;;;;;;;;;;;;;;;;;5004524;28;19940;-84
2022/08/05 12:02:18;;;;;;;;;;;;;;;;;;5023168;28;19964;-84
2022/08/05 12:04:47;;;;;;;;;;;;;;;;;;5025745;28;19918;-83
2022/08/05 12:07:18;;;;;;;;;;;;;;;;;;5019842;28;19961;-84
2022/08/05 12:09:52;;;;;;;;;;;;;;;;;;5030220;28;20278;-84
2022/08/05 12:15:01;;;;;;;;;;;;;;;;;;5025305;28;19924;-84
2022/08/05 12:17:26;;;;;;;;;;;;;;;;;;5024088;28;19918;-84
2022/08/05 12:20:04;;;;;;;;;;;;;;;;;;;;;
2022/08/05 12:22:35;;;;;;;;;;;;;;;;;;5009185;28;19920;-84
2022/08/05 12:25:06;;;;;;;;;;;;;;;;;;5022706;28;20007;-85
2022/08/05 12:27:31;;;;;;;;;;;;;;;;;;5010733;28;20310;-87
2022/08/05 12:30:19;;;;;;;;;;;;;;;;;;5025042;28;19921;-84
2022/08/05 12:32:52;;;;;;;;;;;;;;;;;;;;;
2022/08/05 12:35:18;;;;;;;;;;;;;;;;;;5022673;28;19932;-84
2022/08/05 12:37:43;;;;;;;;;;;;;;;;;;5028110;28;20003;-86
2022/08/05 12:40:08;;;;;;;;;;;;;;;;;;5024498;28;20007;-87
2022/08/05 12:42:34;;;;;;;;;;;;;;;;;;5025957;28;19924;-87
2022/08/05 12:44:59;;;;;;;;;;;;;;;;;;5022965;28;19917;-87
2022/08/05 12:47:24;;;;;;;;;;;;;;;;;;5021171;28;19925;-87
2022/08/05 12:49:49;;;;;;;;;;;;;;;;;;5023111;28;20334;-87
2022/08/05 12:52:15;;;;;;;;;;;;;;;;;;5023449;28;20008;-86
2022/08/05 12:54:40;;;;;;;;;;;;;;;;;;5019080;28;20365;-87
2022/08/05 12:57:05;;;;;;;;;;;;;;;;;;5021769;28;19920;-87
2022/08/05 12:59:31;;;;;;;;;;;;;;;;;;5024459;28;20015;-87
2022/08/05 13:01:56;;;;;;;;;;;;;;;;;;5022658;28;20426;-88
2022/08/05 13:04:22;;;;;;;;;;;;;;;;;;5024817;28;19917;-87
2022/08/05 13:06:47;;;;;;;;;;;;;;;;;;5022016;28;19917;-87
2022/08/05 13:09:12;;;;;;;;;;;;;;;;;;5026785;28;19974;-87
2022/08/05 13:11:37;;;;;;;;;;;;;;;;;;5020464;28;19914;-86
2022/08/05 13:14:02;;;;;;;;;;;;;;;;;;5024617;28;19914;-86
2022/08/05 13:16:27;;;;;;;;;;;;;;;;;;5016554;28;19920;-87
2022/08/05 13:18:53;;;;;;;;;;;;;;;;;;5020975;28;19928;-86
2022/08/05 13:21:18;;;;;;;;;;;;;;;;;;5028240;28;19913;-87
2022/08/05 13:23:43;;;;;;;;;;;;;;;;;;5025743;28;19933;-87
2022/08/05 13:26:08;;;;;;;;;;;;;;;;;;5022724;28;19974;-87
2022/08/05 13:28:33;;;;;;;;;;;;;;;;;;5026594;28;19925;-88
2022/08/05 13:30:59;;;;;;;;;;;;;;;;;;5026279;28;20294;-87
2022/08/05 13:33:24;;;;;;;;;;;;;;;;;;5019698;28;19920;-88
2022/08/05 13:35:49;;;;;;;;;;;;;;;;;;5028536;28;19995;-87
2022/08/05 13:38:14;;;;;;;;;;;;;;;;;;5023184;28;19983;-87
2022/08/05 13:40:42;;;;;;;;;;;;;;;;;;5025078;28;19928;-88
2022/08/05 13:43:07;;;;;;;;;;;;;;;;;;5023003;28;19917;-87
2022/08/05 13:45:32;;;;;;;;;;;;;;;;;;5024834;28;20442;-88
2022/08/05 13:47:57;;;;;;;;;;;;;;;;;;5018805;28;19959;-87
2022/08/05 13:50:22;;;;;;;;;;;;;;;;;;5023845;28;19951;-88
2022/08/05 13:52:48;;;;;;;;;;;;;;;;;;5017086;28;19913;-88
2022/08/05 13:55:13;;;;;;;;;;;;;;;;;;5022223;28;19913;-87
2022/08/05 13:57:38;;;;;;;;;;;;;;;;;;5021449;28;20435;-88
2022/08/05 14:00:03;;;;;;;;;;;;;;;;;;5022346;28;19924;-87
2022/08/05 14:02:28;;;;;;;;;;;;;;;;;;5024650;28;19913;-88
2022/08/05 14:05:14;;;;;;;;;;;;;;;;;;5021750;28;20302;-86
2022/08/05 14:07:39;;;;;;;;;;;;;;;;;;5024905;28;19917;-87
2022/08/05 14:10:04;;;;;;;;;;;;;;;;;;5024087;28;20024;-87
2022/08/05 14:12:29;;;;;;;;;;;;;;;;;;5017839;28;19920;-87
2022/08/05 14:14:54;;;;;;;;;;;;;;;;;;5020024;28;20078;-87
2022/08/05 14:17:22;;;;;;;;;;;;;;;;;;5025461;28;19924;-88
2022/08/05 14:19:47;;;;;;;;;;;;;;;;;;5020356;28;20379;-88
2022/08/05 14:22:12;;;;;;;;;;;;;;;;;;5026786;28;19975;-88
2022/08/05 14:24:38;;;;;;;;;;;;;;;;;;5024235;28;20012;-87
2022/08/05 14:27:03;;;;;;;;;;;;;;;;;;5018594;28;19921;-88
2022/08/05 14:29:29;;;;;;;;;;;;;;;;;;5024328;28;20509;-88
2022/08/05 14:31:54;;;;;;;;;;;;;;;;;;5023557;28;19913;-88
2022/08/05 14:34:19;;;;;;;;;;;;;;;;;;5022526;28;19921;-88
2022/08/05 14:36:44;;;;;;;;;;;;;;;;;;5023529;28;20028;-88
2022/08/05 14:39:09;;;;;;;;;;;;;;;;;;5020781;28;19921;-87
2022/08/05 14:41:35;;;;;;;;;;;;;;;;;;5021389;28;20354;-87
2022/08/05 14:44:00;;;;;;;;;;;;;;;;;;5020200;28;19924;-87
2022/08/05 14:46:25;;;;;;;;;;;;;;;;;;5015201;28;19917;-87
2022/08/05 14:48:52;;;;;;;;;;;;;;;;;;5014423;28;21951;-87
2022/08/05 14:51:17;;;;;;;;;;;;;;;;;;5024602;28;20024;-88
2022/08/05 14:53:42;;;;;;;;;;;;;;;;;;5019592;28;19913;-87
2022/08/05 14:56:08;;;;;;;;;;;;;;;;;;5020862;28;20303;-87
2022/08/05 14:58:33;;;;;;;;;;;;;;;;;;5023295;28;19920;-86
2022/08/05 15:00:58;;;;;;;;;;;;;;;;;;5019110;28;20409;-87
2022/08/05 15:03:23;;;;;;;;;;;;;;;;;;5028053;28;19917;-86
2022/08/05 15:05:48;;;;;;;;;;;;;;;;;;5019518;28;19949;-87
2022/08/05 15:08:14;;;;;;;;;;;;;;;;;;5027249;28;20358;-87
2022/08/05 15:10:42;;;;;;;;;;;;;;;;;;5022580;28;19917;-87
2022/08/05 15:13:07;;;;;;;;;;;;;;;;;;5022844;28;20405;-87
2022/08/05 15:15:32;;;;;;;;;;;;;;;;;;5019502;28;19913;-88
2022/08/05 15:17:57;;;;;;;;;;;;;;;;;;5021104;28;19920;-87
2022/08/05 15:20:24;;;;;;;;;;;;;;;;;;5020142;28;20374;-87
2022/08/05 15:22:49;;;;;;;;;;;;;;;;;;5016574;28;19976;-86
2022/08/05 15:25:14;;;;;;;;;;;;;;;;;;5015751;28;19913;-88
2022/08/05 15:27:39;;;;;;;;;;;;;;;;;;5019580;28;19929;-88
2022/08/05 15:30:05;;;;;;;;;;;;;;;;;;5015623;28;19913;-87
2022/08/05 15:32:30;;;;;;;;;;;;;;;;;;5026051;28;19928;-86
2022/08/05 15:34:55;;;;;;;;;;;;;;;;;;5019241;28;20850;-88
2022/08/05 15:37:20;;;;;;;;;;;;;;;;;;5026792;28;21637;-87
2022/08/05 15:39:46;;;;;;;;;;;;;;;;;;5019123;28;19913;-87
2022/08/05 15:42:11;;;;;;;;;;;;;;;;;;5021452;28;19945;-86
2022/08/05 15:44:36;;;;;;;;;;;;;;;;;;5025226;28;19965;-86
2022/08/05 15:47:02;;;;;;;;;;;;;;;;;;5024820;28;19988;-88
2022/08/05 15:49:27;;;;;;;;;;;;;;;;;;5024190;28;19924;-87
2022/08/05 15:51:52;;;;;;;;;;;;;;;;;;5028646;28;19913;-87
2022/08/05 15:54:18;;;;;;;;;;;;;;;;;;5019214;28;19923;-86
2022/08/05 15:56:43;;;;;;;;;;;;;;;;;;5024463;28;19917;-87
2022/08/05 15:59:08;;;;;;;;;;;;;;;;;;5023859;28;19918;-87
2022/08/05 16:01:33;;;;;;;;;;;;;;;;;;5027088;28;19936;-87
2022/08/05 16:03:58;;;;;;;;;;;;;;;;;;5031824;28;19920;-89
2022/08/05 16:06:23;;;;;;;;;;;;;;;;;;5030525;28;19921;-87
2022/08/05 16:08:49;;;;;;;;;;;;;;;;;;5025420;28;20559;-87
2022/08/05 16:11:14;;;;;;;;;;;;;;;;;;5025186;28;19913;-87
2022/08/05 16:13:39;;;;;;;;;;;;;;;;;;5028234;28;19913;-87
2022/08/05 16:16:04;;;;;;;;;;;;;;;;;;5024040;28;19968;-89
2022/08/05 16:18:31;;;;;;;;;;;;;;;;;;5026388;28;19917;-87
2022/08/05 16:20:58;;;;;;;;;;;;;;;;;;5023593;28;20579;-87
2022/08/05 16:23:23;;;;;;;;;;;;;;;;;;5024808;28;19960;-88
2022/08/05 16:25:48;;;;;;;;;;;;;;;;;;5028005;28;19975;-87
2022/08/05 16:28:14;;;;;;;;;;;;;;;;;;5027835;28;20390;-88
2022/08/05 16:30:39;;;;;;;;;;;;;;;;;;5025654;28;20015;-87
2022/08/05 16:33:04;;;;;;;;;;;;;;;;;;5024017;28;19913;-89
2022/08/05 16:35:29;;;;;;;;;;;;;;;;;;5028165;28;19923;-86
2022/08/05 16:37:55;;;;;;;;;;;;;;;;;;5025720;28;19921;-87
2022/08/05 16:40:20;;;;;;;;;;;;;;;;;;5023362;28;19913;-86
2022/08/05 16:42:45;;;;;;;;;;;;;;;;;;5020316;28;19928;-87
2022/08/05 16:45:10;;;;;;;;;;;;;;;;;;5020198;28;20713;-85
2022/08/05 16:47:36;;;;;;;;;;;;;;;;;;5024961;28;20016;-87
2022/08/05 16:50:01;;;;;;;;;;;;;;;;;;5028196;28;20016;-86
2022/08/05 16:52:26;;;;;;;;;;;;;;;;;;5024297;28;19963;-88
2022/08/05 16:54:51;;;;;;;;;;;;;;;;;;5024428;28;19913;-87
2022/08/05 16:57:22;;;;;;;;;;;;;;;;;;5028321;28;20375;-89
2022/08/05 16:59:47;;;;;;;;;;;;;;;;;;5023463;28;19921;-86
2022/08/05 17:02:12;;;;;;;;;;;;;;;;;;5016299;28;19928;-87
2022/08/05 17:04:37;;;;;;;;;;;;;;;;;;5003163;28;19921;-87
2022/08/05 17:07:03;;;;;;;;;;;;;;;;;;5008915;28;20012;-87
2022/08/05 17:09:28;;;;;;;;;;;;;;;;;;5005852;28;19928;-88
2022/08/05 17:11:53;;;;;;;;;;;;;;;;;;5000935;28;20369;-87
2022/08/05 17:14:18;;;;;;;;;;;;;;;;;;5014034;28;19918;-88
2022/08/05 17:16:43;;;;;;;;;;;;;;;;;;5020337;28;19920;-87
2022/08/05 17:19:09;;;;;;;;;;;;;;;;;;5014296;28;19924;-87
2022/08/05 17:21:34;;;;;;;;;;;;;;;;;;5016031;28;19974;-88